createdAt,value
2017-08-10T00:00:35.257Z,0
2017-08-10T00:01:35.249Z,0
2017-08-10T00:02:35.216Z,0
2017-08-10T00:03:35.199Z,0
2017-08-10T00:04:35.168Z,0
2017-08-10T00:05:35.177Z,0
2017-08-10T00:06:35.126Z,0
2017-08-10T00:07:35.109Z,0
2017-08-10T00:08:35.086Z,0
2017-08-10T00:09:35.074Z,0
2017-08-10T00:10:35.046Z,0
2017-08-10T00:11:35.026Z,0
2017-08-10T00:12:35.004Z,0
2017-08-10T00:13:34.991Z,0
2017-08-10T00:14:34.668Z,0
2017-08-10T00:15:34.941Z,0
2017-08-10T00:16:34.924Z,0
2017-08-10T00:17:34.903Z,0
2017-08-10T00:18:34.881Z,0
2017-08-10T00:19:34.861Z,0
2017-08-10T00:20:34.543Z,0
2017-08-10T00:21:34.518Z,0
2017-08-10T00:22:34.199Z,0
2017-08-10T00:23:34.180Z,0
2017-08-10T00:24:34.745Z,0
2017-08-10T00:25:34.733Z,0
2017-08-10T00:26:34.715Z,0
2017-08-10T00:27:34.396Z,0
2017-08-10T00:28:34.676Z,0
2017-08-10T00:29:34.648Z,0
2017-08-10T00:30:34.627Z,0
2017-08-10T00:31:34.636Z,0
2017-08-10T00:32:34.589Z,0
2017-08-10T00:33:34.285Z,0
2017-08-10T00:34:34.551Z,0
2017-08-10T00:35:33.928Z,0
2017-08-10T00:36:34.210Z,0
2017-08-10T00:37:34.183Z,0
2017-08-10T00:38:34.461Z,0
2017-08-10T00:39:34.141Z,0
2017-08-10T00:40:34.430Z,0
2017-08-10T00:41:33.509Z,0
2017-08-10T00:42:34.377Z,0
2017-08-10T00:43:34.357Z,0
2017-08-10T00:44:34.035Z,0
2017-08-10T00:45:34.013Z,0
2017-08-10T00:46:33.995Z,0
2017-08-10T00:47:34.276Z,0
2017-08-10T00:48:34.254Z,0
2017-08-10T00:49:33.928Z,0
2017-08-10T00:50:34.205Z,0
2017-08-10T00:51:33.888Z,0
2017-08-10T00:52:34.161Z,0
2017-08-10T00:53:34.148Z,0
2017-08-10T00:54:34.123Z,0
2017-08-10T00:55:34.111Z,0
2017-08-10T00:56:34.078Z,0
2017-08-10T00:57:34.061Z,0
2017-08-10T00:58:34.037Z,0
2017-08-10T00:59:33.721Z,0
2017-08-10T01:00:34.005Z,0
2017-08-10T01:01:33.978Z,0
2017-08-10T01:02:33.652Z,0
2017-08-10T01:03:33.936Z,0
2017-08-10T01:04:33.919Z,0
2017-08-10T01:05:33.888Z,0
2017-08-10T01:06:33.571Z,0
2017-08-10T01:07:33.852Z,0
2017-08-10T01:08:33.530Z,0
2017-08-10T01:09:33.804Z,0
2017-08-10T01:10:33.785Z,0
2017-08-10T01:11:33.469Z,0
2017-08-10T01:12:33.448Z,0
2017-08-10T01:13:33.725Z,0
2017-08-10T01:14:33.694Z,0
2017-08-10T01:15:33.679Z,0
2017-08-10T01:16:33.704Z,0
2017-08-10T01:17:33.638Z,0
2017-08-10T01:18:33.609Z,0
2017-08-10T01:19:33.597Z,0
2017-08-10T01:20:33.578Z,0
2017-08-10T01:21:33.560Z,0
2017-08-10T01:22:33.235Z,0
2017-08-10T01:23:33.503Z,0
2017-08-10T01:24:33.485Z,0
2017-08-10T01:25:33.173Z,0
2017-08-10T01:26:33.444Z,0
2017-08-10T01:27:33.126Z,0
2017-08-10T01:28:33.103Z,0
2017-08-10T01:29:33.084Z,0
2017-08-10T01:30:33.361Z,0
2017-08-10T01:31:33.343Z,0
2017-08-10T01:32:33.314Z,0
2017-08-10T01:33:33.002Z,0
2017-08-10T01:34:33.274Z,0
2017-08-10T01:35:33.250Z,0
2017-08-10T01:36:32.937Z,0
2017-08-10T01:37:33.205Z,0
2017-08-10T01:38:32.905Z,0
2017-08-10T01:39:33.164Z,0
2017-08-10T01:40:33.150Z,0
2017-08-10T01:41:33.129Z,0
2017-08-10T01:42:33.105Z,0
2017-08-10T01:43:33.089Z,0
2017-08-10T01:44:33.063Z,0
2017-08-10T01:45:33.046Z,0
2017-08-10T01:46:32.727Z,0
2017-08-10T01:47:32.708Z,0
2017-08-10T01:48:32.689Z,0
2017-08-10T01:49:32.957Z,0
2017-08-10T01:50:32.946Z,0
2017-08-10T01:51:32.922Z,0
2017-08-10T01:52:32.900Z,0
2017-08-10T01:53:32.872Z,0
2017-08-10T01:54:32.863Z,0
2017-08-10T01:55:32.841Z,0
2017-08-10T01:56:32.798Z,0
2017-08-10T01:57:32.777Z,0
2017-08-10T01:58:32.760Z,0
2017-08-10T01:59:32.734Z,0
2017-08-10T02:00:32.719Z,0
2017-08-10T02:01:32.694Z,0
2017-08-10T02:02:32.688Z,0
2017-08-10T02:03:32.649Z,0
2017-08-10T02:04:32.626Z,0
2017-08-10T02:05:32.603Z,0
2017-08-10T02:06:32.584Z,0
2017-08-10T02:07:32.567Z,0
2017-08-10T02:08:32.535Z,0
2017-08-10T02:09:32.518Z,0
2017-08-10T02:10:32.493Z,0
2017-08-10T02:11:32.474Z,0
2017-08-10T02:12:32.447Z,0
2017-08-10T02:13:32.432Z,0
2017-08-10T02:14:32.112Z,0
2017-08-10T02:15:32.394Z,0
2017-08-10T02:16:32.089Z,0
2017-08-10T02:17:32.347Z,0
2017-08-10T02:18:32.023Z,0
2017-08-10T02:19:32.319Z,0
2017-08-10T02:20:31.987Z,0
2017-08-10T02:21:31.968Z,0
2017-08-10T02:22:32.235Z,0
2017-08-10T02:23:32.213Z,0
2017-08-10T02:24:32.194Z,0
2017-08-10T02:25:32.175Z,0
2017-08-10T02:26:32.151Z,0
2017-08-10T02:27:31.840Z,0
2017-08-10T02:28:32.110Z,0
2017-08-10T02:29:32.081Z,0
2017-08-10T02:30:32.080Z,0
2017-08-10T02:31:32.050Z,0
2017-08-10T02:32:32.074Z,0
2017-08-10T02:33:32.000Z,0
2017-08-10T02:34:31.976Z,0
2017-08-10T02:35:31.955Z,0
2017-08-10T02:36:31.931Z,0
2017-08-10T02:37:31.919Z,0
2017-08-10T02:38:31.893Z,0
2017-08-10T02:39:31.871Z,0
2017-08-10T02:40:31.865Z,0
2017-08-10T02:41:31.824Z,0
2017-08-10T02:42:31.811Z,0
2017-08-10T02:43:31.784Z,0
2017-08-10T02:44:31.767Z,0
2017-08-10T02:45:31.745Z,0
2017-08-10T02:46:31.723Z,0
2017-08-10T02:47:31.703Z,0
2017-08-10T02:48:31.687Z,0
2017-08-10T02:49:31.352Z,0
2017-08-10T02:50:31.044Z,0
2017-08-10T02:51:31.307Z,0
2017-08-10T02:52:31.340Z,0
2017-08-10T02:53:31.561Z,0
2017-08-10T02:54:31.541Z,0
2017-08-10T02:55:31.519Z,0
2017-08-10T02:56:31.500Z,0
2017-08-10T02:57:31.481Z,0
2017-08-10T02:58:30.862Z,0
2017-08-10T02:59:31.137Z,0
2017-08-10T03:00:31.410Z,0
2017-08-10T03:01:31.392Z,0
2017-08-10T03:02:31.127Z,0
2017-08-10T03:03:31.048Z,0
2017-08-10T03:04:31.035Z,0
2017-08-10T03:05:31.029Z,0
2017-08-10T03:06:31.285Z,0
2017-08-10T03:07:31.260Z,0
2017-08-10T03:08:30.652Z,0
2017-08-10T03:09:30.925Z,0
2017-08-10T03:10:30.909Z,0
2017-08-10T03:11:30.888Z,0
2017-08-10T03:12:31.153Z,0
2017-08-10T03:13:31.128Z,0
2017-08-10T03:14:31.105Z,0
2017-08-10T03:15:31.086Z,0
2017-08-10T03:16:31.061Z,0
2017-08-10T03:17:31.037Z,0
2017-08-10T03:18:31.021Z,0
2017-08-10T03:19:30.996Z,0
2017-08-10T03:20:30.975Z,0
2017-08-10T03:21:30.956Z,0
2017-08-10T03:22:30.637Z,0
2017-08-10T03:23:30.908Z,0
2017-08-10T03:24:30.892Z,0
2017-08-10T03:25:30.574Z,0
2017-08-10T03:26:30.847Z,0
2017-08-10T03:27:30.531Z,0
2017-08-10T03:28:30.799Z,0
2017-08-10T03:29:30.485Z,0
2017-08-10T03:30:30.775Z,0
2017-08-10T03:31:30.746Z,0
2017-08-10T03:32:30.716Z,0
2017-08-10T03:33:30.700Z,0
2017-08-10T03:34:30.673Z,0
2017-08-10T03:35:30.663Z,0
2017-08-10T03:36:30.631Z,0
2017-08-10T03:37:30.607Z,0
2017-08-10T03:38:30.591Z,0
2017-08-10T03:39:30.568Z,0
2017-08-10T03:40:30.542Z,0
2017-08-10T03:41:30.522Z,0
2017-08-10T03:42:30.511Z,0
2017-08-10T03:43:30.482Z,0
2017-08-10T03:44:30.464Z,0
2017-08-10T03:45:30.440Z,0
2017-08-10T03:46:30.413Z,0
2017-08-10T03:47:30.392Z,0
2017-08-10T03:48:30.371Z,0
2017-08-10T03:49:30.065Z,0
2017-08-10T03:50:30.328Z,0
2017-08-10T03:51:30.009Z,0
2017-08-10T03:52:30.295Z,0
2017-08-10T03:53:30.265Z,0
2017-08-10T03:54:29.946Z,0
2017-08-10T03:55:29.931Z,0
2017-08-10T03:56:30.203Z,0
2017-08-10T03:57:30.180Z,0
2017-08-10T03:58:29.561Z,0
2017-08-10T03:59:29.839Z,0
2017-08-10T04:00:30.110Z,0
2017-08-10T04:01:30.091Z,0
2017-08-10T04:02:30.100Z,0
2017-08-10T04:03:30.053Z,0
2017-08-10T04:04:30.027Z,0
2017-08-10T04:05:30.005Z,5
2017-08-10T04:06:29.990Z,5
2017-08-10T04:07:29.963Z,5
2017-08-10T04:08:29.936Z,5
2017-08-10T04:09:29.918Z,5
2017-08-10T04:10:29.895Z,5
2017-08-10T04:11:29.873Z,5
2017-08-10T04:12:29.854Z,5
2017-08-10T04:13:29.470Z,10
2017-08-10T04:14:29.806Z,10
2017-08-10T04:15:29.794Z,10
2017-08-10T04:16:29.467Z,10
2017-08-10T04:17:29.747Z,10
2017-08-10T04:18:29.154Z,10
2017-08-10T04:19:29.693Z,15
2017-08-10T04:20:29.685Z,15
2017-08-10T04:21:29.653Z,15
2017-08-10T04:22:29.634Z,15
2017-08-10T04:23:29.629Z,15
2017-08-10T04:24:29.588Z,20
2017-08-10T04:25:29.269Z,20
2017-08-10T04:26:29.262Z,25
2017-08-10T04:27:29.230Z,25
2017-08-10T04:28:29.509Z,25
2017-08-10T04:29:29.185Z,25
2017-08-10T04:30:29.460Z,25
2017-08-10T04:31:29.446Z,30
2017-08-10T04:32:29.115Z,30
2017-08-10T04:33:29.433Z,35
2017-08-10T04:34:29.367Z,40
2017-08-10T04:35:29.349Z,45
2017-08-10T04:36:29.327Z,45
2017-08-10T04:37:29.361Z,45
2017-08-10T04:38:29.283Z,45
2017-08-10T04:39:29.257Z,45
2017-08-10T04:40:29.243Z,50
2017-08-10T04:41:29.219Z,55
2017-08-10T04:42:29.300Z,55
2017-08-10T04:43:29.182Z,60
2017-08-10T04:44:29.159Z,65
2017-08-10T04:45:29.133Z,65
2017-08-10T04:46:29.117Z,65
2017-08-10T04:47:29.100Z,70
2017-08-10T04:48:28.774Z,70
2017-08-10T04:49:28.750Z,75
2017-08-10T04:50:29.028Z,75
2017-08-10T04:51:28.999Z,80
2017-08-10T04:52:28.983Z,80
2017-08-10T04:53:28.962Z,80
2017-08-10T04:54:28.943Z,80
2017-08-10T04:55:28.925Z,80
2017-08-10T04:56:28.897Z,80
2017-08-10T04:57:28.870Z,80
2017-08-10T04:58:28.858Z,85
2017-08-10T04:59:28.832Z,90
2017-08-10T05:00:28.517Z,100
2017-08-10T05:01:28.534Z,100
2017-08-10T05:02:28.768Z,105
2017-08-10T05:03:28.751Z,105
2017-08-10T05:04:28.132Z,100
2017-08-10T05:05:28.704Z,100
2017-08-10T05:06:28.685Z,95
2017-08-10T05:07:28.658Z,95
2017-08-10T05:08:28.649Z,95
2017-08-10T05:09:28.628Z,100
2017-08-10T05:10:28.306Z,105
2017-08-10T05:11:28.582Z,110
2017-08-10T05:12:29.695Z,115
2017-08-10T05:13:29.035Z,120
2017-08-10T05:14:30.189Z,130
2017-08-10T05:15:28.202Z,135
2017-08-10T05:16:28.188Z,145
2017-08-10T05:17:28.455Z,155
2017-08-10T05:18:28.434Z,160
2017-08-10T05:19:28.113Z,165
2017-08-10T05:20:28.094Z,170
2017-08-10T05:21:28.087Z,175
2017-08-10T05:22:28.052Z,180
2017-08-10T05:23:28.034Z,185
2017-08-10T05:24:28.016Z,195
2017-08-10T05:25:28.003Z,205
2017-08-10T05:26:27.977Z,220
2017-08-10T05:27:27.947Z,235
2017-08-10T05:28:27.933Z,255
2017-08-10T05:29:27.913Z,275
2017-08-10T05:30:27.900Z,285
2017-08-10T05:31:28.167Z,295
2017-08-10T05:32:28.161Z,305
2017-08-10T05:33:27.835Z,315
2017-08-10T05:34:27.810Z,315
2017-08-10T05:35:28.086Z,320
2017-08-10T05:36:28.060Z,320
2017-08-10T05:37:27.743Z,330
2017-08-10T05:38:27.723Z,330
2017-08-10T05:39:27.712Z,335
2017-08-10T05:40:27.685Z,345
2017-08-10T05:41:27.702Z,360
2017-08-10T05:42:27.646Z,370
2017-08-10T05:43:27.925Z,385
2017-08-10T05:44:27.906Z,400
2017-08-10T05:45:27.886Z,415
2017-08-10T05:46:27.866Z,430
2017-08-10T05:47:27.549Z,440
2017-08-10T05:48:27.535Z,450
2017-08-10T05:49:27.673Z,450
2017-08-10T05:50:27.488Z,455
2017-08-10T05:51:27.461Z,455
2017-08-10T05:52:27.158Z,450
2017-08-10T05:53:27.730Z,445
2017-08-10T05:54:27.415Z,440
2017-08-10T05:55:27.698Z,435
2017-08-10T05:56:27.675Z,420
2017-08-10T05:57:27.649Z,415
2017-08-10T05:58:27.641Z,405
2017-08-10T05:59:27.642Z,400
2017-08-10T06:00:27.597Z,395
2017-08-10T06:01:27.582Z,400
2017-08-10T06:02:27.258Z,405
2017-08-10T06:03:27.546Z,410
2017-08-10T06:04:27.583Z,420
2017-08-10T06:05:27.213Z,415
2017-08-10T06:06:27.483Z,420
2017-08-10T06:07:27.467Z,440
2017-08-10T06:08:27.444Z,470
2017-08-10T06:09:27.424Z,500
2017-08-10T06:10:27.413Z,510
2017-08-10T06:11:27.099Z,515
2017-08-10T06:12:27.071Z,465
2017-08-10T06:13:27.061Z,465
2017-08-10T06:14:27.333Z,470
2017-08-10T06:15:27.326Z,480
2017-08-10T06:16:27.308Z,485
2017-08-10T06:17:27.283Z,495
2017-08-10T06:18:27.264Z,515
2017-08-10T06:19:27.234Z,505
2017-08-10T06:20:27.229Z,505
2017-08-10T06:21:27.217Z,505
2017-08-10T06:22:27.189Z,505
2017-08-10T06:23:27.185Z,510
2017-08-10T06:24:27.162Z,515
2017-08-10T06:25:26.838Z,525
2017-08-10T06:26:26.814Z,535
2017-08-10T06:27:26.804Z,555
2017-08-10T06:28:26.788Z,560
2017-08-10T06:29:27.056Z,565
2017-08-10T06:30:27.045Z,555
2017-08-10T06:31:27.021Z,530
2017-08-10T06:32:27.004Z,510
2017-08-10T06:33:26.989Z,495
2017-08-10T06:34:26.390Z,485
2017-08-10T06:35:26.955Z,480
2017-08-10T06:36:26.940Z,470
2017-08-10T06:37:26.636Z,455
2017-08-10T06:38:26.898Z,445
2017-08-10T06:39:26.890Z,445
2017-08-10T06:40:26.863Z,465
2017-08-10T06:41:26.968Z,505
2017-08-10T06:42:26.820Z,545
2017-08-10T06:43:26.680Z,580
2017-08-10T06:44:26.524Z,590
2017-08-10T06:45:26.769Z,565
2017-08-10T06:46:26.765Z,520
2017-08-10T06:47:26.441Z,500
2017-08-10T06:48:26.450Z,500
2017-08-10T06:49:25.930Z,525
2017-08-10T06:50:26.002Z,580
2017-08-10T06:51:26.680Z,635
2017-08-10T06:52:26.361Z,680
2017-08-10T06:53:27.079Z,700
2017-08-10T06:54:26.626Z,710
2017-08-10T06:55:26.602Z,715
2017-08-10T06:56:26.586Z,720
2017-08-10T06:57:26.275Z,715
2017-08-10T06:58:26.552Z,705
2017-08-10T06:59:26.598Z,690
2017-08-10T07:00:26.514Z,675
2017-08-10T07:01:26.507Z,645
2017-08-10T07:02:26.484Z,620
2017-08-10T07:03:26.472Z,600
2017-08-10T07:04:26.454Z,575
2017-08-10T07:05:26.435Z,555
2017-08-10T07:06:26.421Z,540
2017-08-10T07:07:26.407Z,535
2017-08-10T07:08:26.406Z,525
2017-08-10T07:09:26.394Z,525
2017-08-10T07:10:26.351Z,525
2017-08-10T07:11:26.361Z,535
2017-08-10T07:12:26.315Z,555
2017-08-10T07:13:26.014Z,570
2017-08-10T07:14:26.286Z,575
2017-08-10T07:15:26.876Z,575
2017-08-10T07:16:26.246Z,555
2017-08-10T07:17:26.236Z,535
2017-08-10T07:18:26.226Z,500
2017-08-10T07:19:26.195Z,470
2017-08-10T07:20:26.190Z,445
2017-08-10T07:21:26.168Z,425
2017-08-10T07:22:26.148Z,420
2017-08-10T07:23:26.126Z,410
2017-08-10T07:24:26.108Z,415
2017-08-10T07:25:26.106Z,420
2017-08-10T07:26:25.782Z,425
2017-08-10T07:27:25.470Z,430
2017-08-10T07:28:26.069Z,435
2017-08-10T07:29:26.036Z,440
2017-08-10T07:30:26.015Z,445
2017-08-10T07:31:25.990Z,455
2017-08-10T07:32:25.993Z,470
2017-08-10T07:33:25.663Z,485
2017-08-10T07:34:25.939Z,495
2017-08-10T07:35:25.936Z,500
2017-08-10T07:36:25.871Z,515
2017-08-10T07:37:25.891Z,535
2017-08-10T07:38:25.578Z,575
2017-08-10T07:39:25.845Z,610
2017-08-10T07:40:25.832Z,650
2017-08-10T07:41:25.517Z,690
2017-08-10T07:42:25.501Z,730
2017-08-10T07:43:25.783Z,760
2017-08-10T07:44:25.464Z,770
2017-08-10T07:45:25.458Z,825
2017-08-10T07:46:25.136Z,965
2017-08-10T07:47:25.710Z,775
2017-08-10T07:48:25.693Z,730
2017-08-10T07:49:25.384Z,700
2017-08-10T07:50:25.824Z,665
2017-08-10T07:51:25.353Z,645
2017-08-10T07:52:25.331Z,650
2017-08-10T07:53:25.019Z,690
2017-08-10T07:54:25.303Z,755
2017-08-10T07:55:25.578Z,820
2017-08-10T07:56:24.967Z,860
2017-08-10T07:57:25.544Z,875
2017-08-10T07:58:25.527Z,870
2017-08-10T07:59:25.510Z,870
2017-08-10T08:00:25.196Z,870
2017-08-10T08:01:25.479Z,860
2017-08-10T08:02:25.525Z,825
2017-08-10T08:03:25.457Z,790
2017-08-10T08:04:25.147Z,760
2017-08-10T08:05:25.416Z,760
2017-08-10T08:06:25.402Z,755
2017-08-10T08:07:25.392Z,755
2017-08-10T08:08:25.076Z,760
2017-08-10T08:09:25.060Z,760
2017-08-10T08:10:25.038Z,760
2017-08-10T08:11:25.074Z,730
2017-08-10T08:12:24.716Z,705
2017-08-10T08:13:24.411Z,690
2017-08-10T08:14:25.010Z,690
2017-08-10T08:15:24.965Z,715
2017-08-10T08:16:25.241Z,745
2017-08-10T08:17:24.933Z,775
2017-08-10T08:18:24.621Z,790
2017-08-10T08:19:25.197Z,785
2017-08-10T08:20:24.897Z,770
2017-08-10T08:21:25.175Z,750
2017-08-10T08:22:25.165Z,725
2017-08-10T08:23:25.137Z,695
2017-08-10T08:24:25.123Z,685
2017-08-10T08:25:24.814Z,675
2017-08-10T08:26:25.095Z,675
2017-08-10T08:27:25.074Z,680
2017-08-10T08:28:25.058Z,680
2017-08-10T08:29:25.049Z,685
2017-08-10T08:30:25.029Z,690
2017-08-10T08:31:25.015Z,700
2017-08-10T08:32:24.704Z,710
2017-08-10T08:33:24.983Z,730
2017-08-10T08:34:24.672Z,750
2017-08-10T08:35:24.974Z,765
2017-08-10T08:36:25.898Z,785
2017-08-10T08:37:25.155Z,785
2017-08-10T08:38:25.498Z,790
2017-08-10T08:39:24.892Z,800
2017-08-10T08:40:24.582Z,820
2017-08-10T08:41:24.562Z,830
2017-08-10T08:42:24.551Z,835
2017-08-10T08:43:24.538Z,830
2017-08-10T08:44:24.822Z,790
2017-08-10T08:45:24.523Z,745
2017-08-10T08:46:24.190Z,685
2017-08-10T08:47:24.476Z,635
2017-08-10T08:48:24.761Z,600
2017-08-10T08:49:24.980Z,590
2017-08-10T08:50:24.730Z,610
2017-08-10T08:51:24.767Z,640
2017-08-10T08:52:24.697Z,675
2017-08-10T08:53:24.688Z,695
2017-08-10T08:54:24.370Z,710
2017-08-10T08:55:24.652Z,710
2017-08-10T08:56:24.642Z,710
2017-08-10T08:57:24.025Z,720
2017-08-10T08:58:24.605Z,750
2017-08-10T08:59:24.594Z,780
2017-08-10T09:00:24.576Z,800
2017-08-10T09:01:24.568Z,810
2017-08-10T09:02:24.589Z,820
2017-08-10T09:03:24.529Z,830
2017-08-10T09:04:24.220Z,830
2017-08-10T09:05:24.499Z,805
2017-08-10T09:06:24.482Z,740
2017-08-10T09:07:24.168Z,650
2017-08-10T09:08:25.149Z,555
2017-08-10T09:09:24.142Z,475
2017-08-10T09:10:24.182Z,420
2017-08-10T09:11:24.822Z,385
2017-08-10T09:12:24.104Z,365
2017-08-10T09:13:24.808Z,355
2017-08-10T09:14:25.204Z,360
2017-08-10T09:15:24.339Z,365
2017-08-10T09:16:23.732Z,365
2017-08-10T09:17:23.721Z,365
2017-08-10T09:18:24.299Z,370
2017-08-10T09:19:24.318Z,375
2017-08-10T09:20:24.271Z,385
2017-08-10T09:21:23.665Z,405
2017-08-10T09:22:24.253Z,435
2017-08-10T09:23:23.917Z,470
2017-08-10T09:24:23.905Z,530
2017-08-10T09:25:23.893Z,585
2017-08-10T09:26:23.872Z,650
2017-08-10T09:27:23.860Z,685
2017-08-10T09:28:23.544Z,720
2017-08-10T09:29:23.823Z,765
2017-08-10T09:30:23.810Z,805
2017-08-10T09:31:24.098Z,845
2017-08-10T09:32:23.778Z,865
2017-08-10T09:33:23.760Z,885
2017-08-10T09:34:23.744Z,905
2017-08-10T09:35:24.026Z,925
2017-08-10T09:36:23.719Z,945
2017-08-10T09:37:24.010Z,980
2017-08-10T09:38:23.683Z,1000
2017-08-10T09:39:23.667Z,995
2017-08-10T09:40:23.963Z,975
2017-08-10T09:41:23.975Z,940
2017-08-10T09:42:23.627Z,905
2017-08-10T09:43:23.316Z,865
2017-08-10T09:44:23.897Z,805
2017-08-10T09:45:23.878Z,765
2017-08-10T09:46:23.865Z,735
2017-08-10T09:47:23.259Z,750
2017-08-10T09:48:23.542Z,800
2017-08-10T09:49:23.820Z,885
2017-08-10T09:50:23.514Z,965
2017-08-10T09:51:23.202Z,1005
2017-08-10T09:52:23.807Z,1010
2017-08-10T09:53:23.771Z,995
2017-08-10T09:54:23.469Z,985
2017-08-10T09:55:23.737Z,985
2017-08-10T09:56:23.131Z,975
2017-08-10T09:57:23.948Z,950
2017-08-10T09:58:23.693Z,930
2017-08-10T09:59:23.675Z,920
2017-08-10T10:00:24.953Z,945
2017-08-10T10:01:25.384Z,1030
2017-08-10T10:02:23.125Z,1135
2017-08-10T10:03:22.732Z,1215
2017-08-10T10:04:23.309Z,1215
2017-08-10T10:05:23.304Z,1165
2017-08-10T10:06:23.290Z,1100
2017-08-10T10:07:22.682Z,1040
2017-08-10T10:08:23.552Z,1010
2017-08-10T10:09:23.249Z,1005
2017-08-10T10:10:23.251Z,1005
2017-08-10T10:11:23.230Z,1030
2017-08-10T10:12:23.204Z,1050
2017-08-10T10:13:23.203Z,1075
2017-08-10T10:14:23.172Z,1105
2017-08-10T10:15:23.457Z,1120
2017-08-10T10:16:23.150Z,1110
2017-08-10T10:17:22.837Z,1085
2017-08-10T10:18:23.470Z,1055
2017-08-10T10:19:23.104Z,1015
2017-08-10T10:20:23.137Z,990
2017-08-10T10:21:23.083Z,955
2017-08-10T10:22:23.358Z,935
2017-08-10T10:23:23.043Z,935
2017-08-10T10:24:23.035Z,955
2017-08-10T10:25:22.719Z,1015
2017-08-10T10:26:23.009Z,1125
2017-08-10T10:27:22.991Z,1210
2017-08-10T10:28:23.270Z,1280
2017-08-10T10:29:23.261Z,1280
2017-08-10T10:30:23.257Z,1265
2017-08-10T10:31:22.939Z,1190
2017-08-10T10:32:22.917Z,1055
2017-08-10T10:33:23.206Z,885
2017-08-10T10:34:22.599Z,755
2017-08-10T10:35:23.181Z,700
2017-08-10T10:36:25.073Z,695
2017-08-10T10:37:22.937Z,690
2017-08-10T10:38:23.198Z,660
2017-08-10T10:39:23.127Z,610
2017-08-10T10:40:22.821Z,535
2017-08-10T10:41:23.095Z,470
2017-08-10T10:42:23.197Z,410
2017-08-10T10:43:22.776Z,375
2017-08-10T10:44:23.063Z,355
2017-08-10T10:45:23.122Z,345
2017-08-10T10:46:23.024Z,350
2017-08-10T10:47:23.008Z,360
2017-08-10T10:48:22.988Z,390
2017-08-10T10:49:22.684Z,415
2017-08-10T10:50:22.382Z,435
2017-08-10T10:51:22.977Z,465
2017-08-10T10:52:22.940Z,485
2017-08-10T10:53:22.946Z,495
2017-08-10T10:54:22.902Z,505
2017-08-10T10:55:22.590Z,535
2017-08-10T10:56:22.874Z,585
2017-08-10T10:57:22.856Z,645
2017-08-10T10:58:22.842Z,705
2017-08-10T10:59:22.832Z,725
2017-08-10T11:00:22.823Z,715
2017-08-10T11:01:22.787Z,685
2017-08-10T11:02:22.503Z,635
2017-08-10T11:03:22.769Z,585
2017-08-10T11:04:22.736Z,540
2017-08-10T11:05:22.726Z,510
2017-08-10T11:06:22.112Z,485
2017-08-10T11:07:22.394Z,460
2017-08-10T11:08:22.675Z,440
2017-08-10T11:09:22.665Z,445
2017-08-10T11:10:22.647Z,475
2017-08-10T11:11:22.292Z,525
2017-08-10T11:12:22.042Z,595
2017-08-10T11:13:22.602Z,650
2017-08-10T11:14:22.289Z,655
2017-08-10T11:15:22.264Z,645
2017-08-10T11:16:22.548Z,620
2017-08-10T11:17:22.539Z,575
2017-08-10T11:18:22.220Z,530
2017-08-10T11:19:22.499Z,495
2017-08-10T11:20:22.480Z,475
2017-08-10T11:21:22.462Z,460
2017-08-10T11:22:22.446Z,465
2017-08-10T11:23:22.143Z,490
2017-08-10T11:24:22.412Z,515
2017-08-10T11:25:22.400Z,530
2017-08-10T11:26:22.407Z,520
2017-08-10T11:27:21.776Z,500
2017-08-10T11:28:22.343Z,495
2017-08-10T11:29:22.719Z,495
2017-08-10T11:30:22.316Z,500
2017-08-10T11:31:21.729Z,485
2017-08-10T11:32:22.287Z,460
2017-08-10T11:33:21.666Z,430
2017-08-10T11:34:21.358Z,410
2017-08-10T11:35:21.937Z,400
2017-08-10T11:36:22.213Z,390
2017-08-10T11:37:22.192Z,390
2017-08-10T11:38:22.185Z,390
2017-08-10T11:39:21.579Z,400
2017-08-10T11:40:21.847Z,430
2017-08-10T11:41:21.835Z,465
2017-08-10T11:42:22.128Z,490
2017-08-10T11:43:21.803Z,505
2017-08-10T11:44:21.483Z,515
2017-08-10T11:45:21.481Z,525
2017-08-10T11:46:22.233Z,535
2017-08-10T11:47:21.728Z,540
2017-08-10T11:48:21.485Z,555
2017-08-10T11:49:21.986Z,555
2017-08-10T11:50:21.383Z,530
2017-08-10T11:51:21.662Z,470
2017-08-10T11:52:22.092Z,400
2017-08-10T11:53:21.339Z,360
2017-08-10T11:54:21.610Z,335
2017-08-10T11:55:21.597Z,330
2017-08-10T11:56:21.579Z,350
2017-08-10T11:57:21.857Z,390
2017-08-10T11:58:21.837Z,430
2017-08-10T11:59:21.824Z,450
2017-08-10T12:00:21.504Z,430
2017-08-10T12:01:21.491Z,400
2017-08-10T12:02:21.467Z,375
2017-08-10T12:03:21.799Z,365
2017-08-10T12:04:21.458Z,370
2017-08-10T12:05:21.512Z,385
2017-08-10T12:06:21.691Z,400
2017-08-10T12:07:21.421Z,415
2017-08-10T12:08:21.571Z,425
2017-08-10T12:09:21.933Z,435
2017-08-10T12:10:22.176Z,440
2017-08-10T12:11:21.333Z,435
2017-08-10T12:12:21.304Z,425
2017-08-10T12:13:21.279Z,415
2017-08-10T12:14:21.372Z,395
2017-08-10T12:15:21.769Z,380
2017-08-10T12:16:21.868Z,375
2017-08-10T12:17:22.351Z,370
2017-08-10T12:18:21.952Z,360
2017-08-10T12:19:21.515Z,350
2017-08-10T12:20:22.183Z,360
2017-08-10T12:21:21.489Z,390
2017-08-10T12:22:21.415Z,455
2017-08-10T12:23:21.103Z,505
2017-08-10T12:24:21.722Z,510
2017-08-10T12:25:21.408Z,475
2017-08-10T12:26:20.893Z,455
2017-08-10T12:27:22.057Z,440
2017-08-10T12:28:20.819Z,450
2017-08-10T12:29:21.087Z,455
2017-08-10T12:30:20.363Z,450
2017-08-10T12:31:21.597Z,445
2017-08-10T12:32:20.602Z,445
2017-08-10T12:33:21.859Z,455
2017-08-10T12:34:20.595Z,465
2017-08-10T12:35:21.227Z,465
2017-08-10T12:36:21.734Z,455
2017-08-10T12:37:21.191Z,450
2017-08-10T12:38:20.775Z,440
2017-08-10T12:39:20.547Z,425
2017-08-10T12:40:21.411Z,425
2017-08-10T12:41:21.399Z,440
2017-08-10T12:42:21.484Z,460
2017-08-10T12:43:21.420Z,475
2017-08-10T12:44:20.338Z,485
2017-08-10T12:45:20.200Z,485
2017-08-10T12:46:20.562Z,490
2017-08-10T12:47:20.863Z,485
2017-08-10T12:48:21.283Z,470
2017-08-10T12:49:20.379Z,460
2017-08-10T12:50:20.679Z,455
2017-08-10T12:51:20.822Z,450
2017-08-10T12:52:21.423Z,445
2017-08-10T12:53:20.485Z,430
2017-08-10T12:54:20.329Z,420
2017-08-10T12:55:20.573Z,405
2017-08-10T12:56:20.273Z,400
2017-08-10T12:57:20.826Z,395
2017-08-10T12:58:20.439Z,395
2017-08-10T12:59:20.535Z,390
2017-08-10T13:00:20.610Z,390
2017-08-10T13:01:19.706Z,380
2017-08-10T13:02:20.569Z,365
2017-08-10T13:03:19.951Z,355
2017-08-10T13:04:20.977Z,335
2017-08-10T13:05:20.477Z,330
2017-08-10T13:06:20.362Z,325
2017-08-10T13:07:20.334Z,330
2017-08-10T13:08:20.597Z,340
2017-08-10T13:09:20.325Z,365
2017-08-10T13:10:20.323Z,390
2017-08-10T13:11:21.366Z,410
2017-08-10T13:12:20.803Z,425
2017-08-10T13:13:20.534Z,425
2017-08-10T13:14:20.550Z,430
2017-08-10T13:15:19.893Z,445
2017-08-10T13:16:19.297Z,480
2017-08-10T13:17:20.196Z,510
2017-08-10T13:18:20.063Z,550
2017-08-10T13:19:20.222Z,575
2017-08-10T13:20:21.066Z,605
2017-08-10T13:21:20.960Z,625
2017-08-10T13:22:19.811Z,630
2017-08-10T13:23:20.777Z,625
2017-08-10T13:24:20.954Z,630
2017-08-10T13:25:20.042Z,645
2017-08-10T13:26:19.685Z,655
2017-08-10T13:27:19.937Z,655
2017-08-10T13:28:20.056Z,655
2017-08-10T13:29:19.983Z,655
2017-08-10T13:30:20.502Z,630
2017-08-10T13:31:20.639Z,600
2017-08-10T13:32:19.890Z,560
2017-08-10T13:33:19.847Z,510
2017-08-10T13:34:20.563Z,475
2017-08-10T13:35:20.086Z,445
2017-08-10T13:36:20.811Z,445
2017-08-10T13:37:20.238Z,475
2017-08-10T13:38:19.827Z,495
2017-08-10T13:39:21.071Z,505
2017-08-10T13:40:19.886Z,515
2017-08-10T13:41:20.200Z,535
2017-08-10T13:42:20.226Z,565
2017-08-10T13:43:21.001Z,605
2017-08-10T13:44:20.915Z,655
2017-08-10T13:45:19.483Z,665
2017-08-10T13:46:20.102Z,635
2017-08-10T13:47:20.065Z,585
2017-08-10T13:48:19.475Z,550
2017-08-10T13:49:19.984Z,525
2017-08-10T13:50:19.624Z,500
2017-08-10T13:51:18.977Z,465
2017-08-10T13:52:19.607Z,440
2017-08-10T13:53:18.980Z,440
2017-08-10T13:54:19.873Z,450
2017-08-10T13:55:19.286Z,445
2017-08-10T13:56:19.496Z,400
2017-08-10T13:57:20.235Z,335
2017-08-10T13:58:19.959Z,295
2017-08-10T13:59:19.976Z,290
2017-08-10T14:00:20.589Z,310
2017-08-10T14:01:19.939Z,330
2017-08-10T14:02:19.877Z,360
2017-08-10T14:03:20.983Z,415
2017-08-10T14:04:19.156Z,490